sensor_id;sensor_type;location;lat;lon;timestamp;temperature;humidity
55121;DHT22;41019;48.512;9.036;2022-08-14T00:01:00;17.50;64.80
55121;DHT22;41019;48.512;9.036;2022-08-14T00:03:29;17.50;64.60
55121;DHT22;41019;48.512;9.036;2022-08-14T00:05:57;17.50;63.60
55121;DHT22;41019;48.512;9.036;2022-08-14T00:08:24;17.50;63.20
55121;DHT22;41019;48.512;9.036;2022-08-14T00:10:51;17.40;63.80
55121;DHT22;41019;48.512;9.036;2022-08-14T00:13:19;17.40;63.70
55121;DHT22;41019;48.512;9.036;2022-08-14T00:15:47;17.40;64.00
55121;DHT22;41019;48.512;9.036;2022-08-14T00:18:19;17.40;64.60
55121;DHT22;41019;48.512;9.036;2022-08-14T00:20:45;17.30;64.50
55121;DHT22;41019;48.512;9.036;2022-08-14T00:23:13;17.30;65.30
55121;DHT22;41019;48.512;9.036;2022-08-14T00:25:41;17.30;65.10
55121;DHT22;41019;48.512;9.036;2022-08-14T00:28:10;17.20;65.60
55121;DHT22;41019;48.512;9.036;2022-08-14T00:30:37;17.20;66.80
55121;DHT22;41019;48.512;9.036;2022-08-14T00:33:03;17.10;67.50
55121;DHT22;41019;48.512;9.036;2022-08-14T00:35:30;17.10;67.60
55121;DHT22;41019;48.512;9.036;2022-08-14T00:37:56;17.00;67.80
55121;DHT22;41019;48.512;9.036;2022-08-14T00:40:23;17.00;68.10
55121;DHT22;41019;48.512;9.036;2022-08-14T00:42:49;16.90;68.50
55121;DHT22;41019;48.512;9.036;2022-08-14T00:45:16;16.80;68.70
55121;DHT22;41019;48.512;9.036;2022-08-14T00:47:44;16.80;69.00
55121;DHT22;41019;48.512;9.036;2022-08-14T00:50:14;16.80;69.20
55121;DHT22;41019;48.512;9.036;2022-08-14T00:52:43;16.70;69.20
55121;DHT22;41019;48.512;9.036;2022-08-14T00:55:11;16.60;69.60
55121;DHT22;41019;48.512;9.036;2022-08-14T00:57:38;16.60;70.10
55121;DHT22;41019;48.512;9.036;2022-08-14T01:00:14;16.50;70.10
55121;DHT22;41019;48.512;9.036;2022-08-14T01:02:59;16.50;70.40
55121;DHT22;41019;48.512;9.036;2022-08-14T01:05:38;16.40;70.50
55121;DHT22;41019;48.512;9.036;2022-08-14T01:08:29;16.40;70.30
55121;DHT22;41019;48.512;9.036;2022-08-14T01:10:57;16.30;70.30
55121;DHT22;41019;48.512;9.036;2022-08-14T01:13:30;16.30;70.60
55121;DHT22;41019;48.512;9.036;2022-08-14T01:16:00;16.30;70.80
55121;DHT22;41019;48.512;9.036;2022-08-14T01:18:28;16.20;72.00
55121;DHT22;41019;48.512;9.036;2022-08-14T01:21:14;16.20;72.00
55121;DHT22;41019;48.512;9.036;2022-08-14T01:23:47;16.20;72.00
55121;DHT22;41019;48.512;9.036;2022-08-14T01:26:33;16.10;71.10
55121;DHT22;41019;48.512;9.036;2022-08-14T01:29:19;16.00;71.50
55121;DHT22;41019;48.512;9.036;2022-08-14T01:31:45;15.90;70.60
55121;DHT22;41019;48.512;9.036;2022-08-14T01:34:14;15.90;70.10
55121;DHT22;41019;48.512;9.036;2022-08-14T01:36:40;15.80;69.60
55121;DHT22;41019;48.512;9.036;2022-08-14T01:39:11;15.70;69.70
55121;DHT22;41019;48.512;9.036;2022-08-14T01:41:37;15.60;69.80
55121;DHT22;41019;48.512;9.036;2022-08-14T01:44:07;15.60;70.00
55121;DHT22;41019;48.512;9.036;2022-08-14T01:46:38;15.50;70.20
55121;DHT22;41019;48.512;9.036;2022-08-14T01:49:08;15.50;70.60
55121;DHT22;41019;48.512;9.036;2022-08-14T01:51:36;15.40;70.80
55121;DHT22;41019;48.512;9.036;2022-08-14T01:54:10;15.40;71.30
55121;DHT22;41019;48.512;9.036;2022-08-14T01:56:38;15.30;72.00
55121;DHT22;41019;48.512;9.036;2022-08-14T02:01:41;15.20;72.10
55121;DHT22;41019;48.512;9.036;2022-08-14T02:04:09;15.20;72.60
55121;DHT22;41019;48.512;9.036;2022-08-14T02:06:36;15.10;72.60
55121;DHT22;41019;48.512;9.036;2022-08-14T02:09:06;15.10;72.80
55121;DHT22;41019;48.512;9.036;2022-08-14T02:11:34;15.10;73.40
55121;DHT22;41019;48.512;9.036;2022-08-14T02:14:03;15.10;72.90
55121;DHT22;41019;48.512;9.036;2022-08-14T02:16:32;15.10;72.90
55121;DHT22;41019;48.512;9.036;2022-08-14T02:19:10;15.10;72.80
55121;DHT22;41019;48.512;9.036;2022-08-14T02:21:36;15.10;72.80
55121;DHT22;41019;48.512;9.036;2022-08-14T02:24:04;15.10;73.50
55121;DHT22;41019;48.512;9.036;2022-08-14T02:26:34;15.10;73.20
55121;DHT22;41019;48.512;9.036;2022-08-14T02:29:22;15.10;73.80
55121;DHT22;41019;48.512;9.036;2022-08-14T02:31:55;15.10;74.80
55121;DHT22;41019;48.512;9.036;2022-08-14T02:34:32;15.00;74.80
55121;DHT22;41019;48.512;9.036;2022-08-14T02:37:07;15.00;75.60
55121;DHT22;41019;48.512;9.036;2022-08-14T02:39:42;15.00;74.30
55121;DHT22;41019;48.512;9.036;2022-08-14T02:42:13;15.00;73.30
55121;DHT22;41019;48.512;9.036;2022-08-14T02:44:42;15.00;73.10
55121;DHT22;41019;48.512;9.036;2022-08-14T02:47:08;15.00;72.20
55121;DHT22;41019;48.512;9.036;2022-08-14T02:49:34;15.00;72.10
55121;DHT22;41019;48.512;9.036;2022-08-14T02:52:02;15.00;71.80
55121;DHT22;41019;48.512;9.036;2022-08-14T02:54:32;14.90;72.20
55121;DHT22;41019;48.512;9.036;2022-08-14T02:56:59;14.90;71.90
55121;DHT22;41019;48.512;9.036;2022-08-14T02:59:27;14.90;72.30
55121;DHT22;41019;48.512;9.036;2022-08-14T03:01:56;14.90;72.60
55121;DHT22;41019;48.512;9.036;2022-08-14T03:04:24;14.90;73.00
55121;DHT22;41019;48.512;9.036;2022-08-14T03:06:54;14.80;74.10
55121;DHT22;41019;48.512;9.036;2022-08-14T03:09:20;14.80;75.10
55121;DHT22;41019;48.512;9.036;2022-08-14T03:11:46;14.80;74.80
55121;DHT22;41019;48.512;9.036;2022-08-14T03:14:12;14.70;74.70
55121;DHT22;41019;48.512;9.036;2022-08-14T03:16:40;14.70;74.70
55121;DHT22;41019;48.512;9.036;2022-08-14T03:19:07;14.60;75.10
55121;DHT22;41019;48.512;9.036;2022-08-14T03:21:36;14.60;75.50
55121;DHT22;41019;48.512;9.036;2022-08-14T03:24:03;14.50;75.50
55121;DHT22;41019;48.512;9.036;2022-08-14T03:26:41;14.50;75.70
55121;DHT22;41019;48.512;9.036;2022-08-14T03:29:08;14.40;75.80
55121;DHT22;41019;48.512;9.036;2022-08-14T03:31:34;14.40;76.20
55121;DHT22;41019;48.512;9.036;2022-08-14T03:34:01;14.30;76.10
55121;DHT22;41019;48.512;9.036;2022-08-14T03:36:29;14.30;76.00
55121;DHT22;41019;48.512;9.036;2022-08-14T03:38:57;14.30;76.40
55121;DHT22;41019;48.512;9.036;2022-08-14T03:41:26;14.20;76.10
55121;DHT22;41019;48.512;9.036;2022-08-14T03:43:55;14.20;76.10
55121;DHT22;41019;48.512;9.036;2022-08-14T03:46:24;14.10;76.00
55121;DHT22;41019;48.512;9.036;2022-08-14T03:48:56;14.00;76.10
55121;DHT22;41019;48.512;9.036;2022-08-14T03:51:23;14.00;76.20
55121;DHT22;41019;48.512;9.036;2022-08-14T03:53:56;14.00;76.10
55121;DHT22;41019;48.512;9.036;2022-08-14T03:56:23;13.90;76.30
55121;DHT22;41019;48.512;9.036;2022-08-14T03:58:54;13.90;76.70
55121;DHT22;41019;48.512;9.036;2022-08-14T04:01:24;13.90;76.70
55121;DHT22;41019;48.512;9.036;2022-08-14T04:03:53;13.80;77.30
55121;DHT22;41019;48.512;9.036;2022-08-14T04:06:20;13.80;77.00
55121;DHT22;41019;48.512;9.036;2022-08-14T04:08:47;13.80;77.40
55121;DHT22;41019;48.512;9.036;2022-08-14T04:11:15;13.80;77.50
55121;DHT22;41019;48.512;9.036;2022-08-14T04:13:43;13.80;77.90
55121;DHT22;41019;48.512;9.036;2022-08-14T04:16:13;13.70;77.50
55121;DHT22;41019;48.512;9.036;2022-08-14T04:18:41;13.70;78.00
55121;DHT22;41019;48.512;9.036;2022-08-14T04:21:08;13.70;76.90
55121;DHT22;41019;48.512;9.036;2022-08-14T04:23:35;13.70;77.00
55121;DHT22;41019;48.512;9.036;2022-08-14T04:26:04;13.60;77.10
55121;DHT22;41019;48.512;9.036;2022-08-14T04:28:31;13.60;77.30
55121;DHT22;41019;48.512;9.036;2022-08-14T04:30:57;13.60;77.40
55121;DHT22;41019;48.512;9.036;2022-08-14T04:33:23;13.60;77.60
55121;DHT22;41019;48.512;9.036;2022-08-14T04:38:24;13.60;78.40
55121;DHT22;41019;48.512;9.036;2022-08-14T04:41:09;13.60;78.40
55121;DHT22;41019;48.512;9.036;2022-08-14T04:43:54;13.60;78.30
55121;DHT22;41019;48.512;9.036;2022-08-14T04:46:22;13.60;78.20
55121;DHT22;41019;48.512;9.036;2022-08-14T04:48:49;13.60;77.80
55121;DHT22;41019;48.512;9.036;2022-08-14T04:51:18;13.60;77.60
55121;DHT22;41019;48.512;9.036;2022-08-14T04:53:47;13.70;77.60
55121;DHT22;41019;48.512;9.036;2022-08-14T04:56:19;13.70;76.90
55121;DHT22;41019;48.512;9.036;2022-08-14T04:58:47;13.80;76.60
55121;DHT22;41019;48.512;9.036;2022-08-14T05:01:14;13.80;76.40
55121;DHT22;41019;48.512;9.036;2022-08-14T05:03:41;13.80;75.90
55121;DHT22;41019;48.512;9.036;2022-08-14T05:06:09;13.80;75.80
55121;DHT22;41019;48.512;9.036;2022-08-14T05:08:37;13.90;76.00
55121;DHT22;41019;48.512;9.036;2022-08-14T05:11:05;13.90;75.30
55121;DHT22;41019;48.512;9.036;2022-08-14T05:13:33;14.00;74.90
55121;DHT22;41019;48.512;9.036;2022-08-14T05:16:00;14.00;74.30
55121;DHT22;41019;48.512;9.036;2022-08-14T05:18:29;14.10;74.20
55121;DHT22;41019;48.512;9.036;2022-08-14T05:21:00;14.10;73.80
55121;DHT22;41019;48.512;9.036;2022-08-14T05:23:28;14.20;73.50
55121;DHT22;41019;48.512;9.036;2022-08-14T05:25:57;14.30;73.40
55121;DHT22;41019;48.512;9.036;2022-08-14T05:28:40;14.30;73.10
55121;DHT22;41019;48.512;9.036;2022-08-14T05:31:14;14.40;72.60
55121;DHT22;41019;48.512;9.036;2022-08-14T05:33:44;14.40;73.20
55121;DHT22;41019;48.512;9.036;2022-08-14T05:36:12;14.50;72.80
55121;DHT22;41019;48.512;9.036;2022-08-14T05:38:41;14.50;73.10
55121;DHT22;41019;48.512;9.036;2022-08-14T05:41:12;14.60;72.30
55121;DHT22;41019;48.512;9.036;2022-08-14T05:43:40;14.60;72.10
55121;DHT22;41019;48.512;9.036;2022-08-14T05:46:08;14.70;71.70
55121;DHT22;41019;48.512;9.036;2022-08-14T05:48:34;14.70;71.50
55121;DHT22;41019;48.512;9.036;2022-08-14T05:51:00;14.80;71.60
55121;DHT22;41019;48.512;9.036;2022-08-14T05:53:27;14.90;71.40
55121;DHT22;41019;48.512;9.036;2022-08-14T05:55:54;14.90;71.10
55121;DHT22;41019;48.512;9.036;2022-08-14T05:58:21;15.00;70.90
55121;DHT22;41019;48.512;9.036;2022-08-14T06:00:48;15.10;70.60
55121;DHT22;41019;48.512;9.036;2022-08-14T06:03:18;15.20;70.20
55121;DHT22;41019;48.512;9.036;2022-08-14T06:05:51;15.20;69.90
55121;DHT22;41019;48.512;9.036;2022-08-14T06:08:21;15.20;69.50
55121;DHT22;41019;48.512;9.036;2022-08-14T06:10:48;15.30;69.30
55121;DHT22;41019;48.512;9.036;2022-08-14T06:13:14;15.40;69.50
55121;DHT22;41019;48.512;9.036;2022-08-14T06:15:41;15.50;69.70
55121;DHT22;41019;48.512;9.036;2022-08-14T06:18:08;15.50;69.10
55121;DHT22;41019;48.512;9.036;2022-08-14T06:20:35;15.60;69.20
55121;DHT22;41019;48.512;9.036;2022-08-14T06:23:01;15.70;69.10
55121;DHT22;41019;48.512;9.036;2022-08-14T06:25:28;15.90;68.50
55121;DHT22;41019;48.512;9.036;2022-08-14T06:27:54;16.00;67.90
55121;DHT22;41019;48.512;9.036;2022-08-14T06:30:23;16.10;67.70
55121;DHT22;41019;48.512;9.036;2022-08-14T06:32:50;16.20;67.80
55121;DHT22;41019;48.512;9.036;2022-08-14T06:35:17;16.30;67.30
55121;DHT22;41019;48.512;9.036;2022-08-14T06:37:54;16.40;67.30
55121;DHT22;41019;48.512;9.036;2022-08-14T06:40:31;16.50;66.60
55121;DHT22;41019;48.512;9.036;2022-08-14T06:43:03;16.60;66.50
55121;DHT22;41019;48.512;9.036;2022-08-14T06:45:35;16.80;65.60
55121;DHT22;41019;48.512;9.036;2022-08-14T06:48:02;17.00;65.20
55121;DHT22;41019;48.512;9.036;2022-08-14T06:50:28;17.10;65.10
55121;DHT22;41019;48.512;9.036;2022-08-14T06:52:56;17.30;64.70
55121;DHT22;41019;48.512;9.036;2022-08-14T06:55:22;17.50;63.70
55121;DHT22;41019;48.512;9.036;2022-08-14T06:57:50;17.70;63.10
55121;DHT22;41019;48.512;9.036;2022-08-14T07:00:21;17.90;62.50
55121;DHT22;41019;48.512;9.036;2022-08-14T07:02:47;18.20;62.30
55121;DHT22;41019;48.512;9.036;2022-08-14T07:05:32;18.50;61.00
55121;DHT22;41019;48.512;9.036;2022-08-14T07:08:23;18.80;60.10
55121;DHT22;41019;48.512;9.036;2022-08-14T07:10:56;19.10;59.20
55121;DHT22;41019;48.512;9.036;2022-08-14T07:13:24;19.40;57.30
55121;DHT22;41019;48.512;9.036;2022-08-14T07:15:55;19.60;56.70
55121;DHT22;41019;48.512;9.036;2022-08-14T07:18:26;19.90;55.90
55121;DHT22;41019;48.512;9.036;2022-08-14T07:20:54;20.00;55.90
55121;DHT22;41019;48.512;9.036;2022-08-14T07:23:21;20.20;55.40
55121;DHT22;41019;48.512;9.036;2022-08-14T07:25:53;20.40;55.00
55121;DHT22;41019;48.512;9.036;2022-08-14T07:28:29;20.50;54.00
55121;DHT22;41019;48.512;9.036;2022-08-14T07:30:57;20.70;53.30
55121;DHT22;41019;48.512;9.036;2022-08-14T07:33:27;20.80;53.20
55121;DHT22;41019;48.512;9.036;2022-08-14T07:35:54;21.00;52.90
55121;DHT22;41019;48.512;9.036;2022-08-14T07:38:22;21.20;52.80
55121;DHT22;41019;48.512;9.036;2022-08-14T07:40:49;21.40;52.80
55121;DHT22;41019;48.512;9.036;2022-08-14T07:43:16;21.60;51.80
55121;DHT22;41019;48.512;9.036;2022-08-14T07:45:43;21.80;51.00
55121;DHT22;41019;48.512;9.036;2022-08-14T07:48:09;22.00;50.20
55121;DHT22;41019;48.512;9.036;2022-08-14T07:50:36;22.20;50.30
55121;DHT22;41019;48.512;9.036;2022-08-14T07:53:04;22.40;49.70
55121;DHT22;41019;48.512;9.036;2022-08-14T07:55:32;22.60;49.30
55121;DHT22;41019;48.512;9.036;2022-08-14T07:57:58;22.90;48.60
55121;DHT22;41019;48.512;9.036;2022-08-14T08:00:25;23.10;47.80
55121;DHT22;41019;48.512;9.036;2022-08-14T08:02:54;23.30;47.20
55121;DHT22;41019;48.512;9.036;2022-08-14T08:05:22;23.60;46.80
55121;DHT22;41019;48.512;9.036;2022-08-14T08:07:50;23.80;45.90
55121;DHT22;41019;48.512;9.036;2022-08-14T08:10:24;24.10;45.40
55121;DHT22;41019;48.512;9.036;2022-08-14T08:15:28;24.60;44.30
55121;DHT22;41019;48.512;9.036;2022-08-14T08:17:54;24.80;44.30
55121;DHT22;41019;48.512;9.036;2022-08-14T08:20:25;25.00;44.10
55121;DHT22;41019;48.512;9.036;2022-08-14T08:22:52;25.30;43.40
55121;DHT22;41019;48.512;9.036;2022-08-14T08:25:22;25.50;42.80
55121;DHT22;41019;48.512;9.036;2022-08-14T08:28:01;25.70;42.30
55121;DHT22;41019;48.512;9.036;2022-08-14T08:30:30;25.90;41.90
55121;DHT22;41019;48.512;9.036;2022-08-14T08:33:00;26.30;41.90
55121;DHT22;41019;48.512;9.036;2022-08-14T08:35:29;26.40;41.50
55121;DHT22;41019;48.512;9.036;2022-08-14T08:38:02;26.70;41.70
55121;DHT22;41019;48.512;9.036;2022-08-14T08:40:41;27.00;40.80
55121;DHT22;41019;48.512;9.036;2022-08-14T08:43:17;27.20;38.80
55121;DHT22;41019;48.512;9.036;2022-08-14T08:45:56;27.50;38.90
55121;DHT22;41019;48.512;9.036;2022-08-14T08:48:23;27.70;38.00
55121;DHT22;41019;48.512;9.036;2022-08-14T08:50:58;28.00;38.50
55121;DHT22;41019;48.512;9.036;2022-08-14T08:53:32;28.20;37.70
55121;DHT22;41019;48.512;9.036;2022-08-14T08:55:59;28.60;36.80
55121;DHT22;41019;48.512;9.036;2022-08-14T08:58:25;28.80;36.30
55121;DHT22;41019;48.512;9.036;2022-08-14T09:00:54;29.10;37.10
55121;DHT22;41019;48.512;9.036;2022-08-14T09:03:23;29.30;36.00
55121;DHT22;41019;48.512;9.036;2022-08-14T09:05:56;29.50;35.80
55121;DHT22;41019;48.512;9.036;2022-08-14T09:08:26;29.70;34.00
55121;DHT22;41019;48.512;9.036;2022-08-14T09:10:54;30.00;34.00
55121;DHT22;41019;48.512;9.036;2022-08-14T09:13:22;30.10;33.40
55121;DHT22;41019;48.512;9.036;2022-08-14T09:15:52;30.20;33.30
55121;DHT22;41019;48.512;9.036;2022-08-14T09:18:20;30.50;33.20
55121;DHT22;41019;48.512;9.036;2022-08-14T09:20:54;30.60;33.00
55121;DHT22;41019;48.512;9.036;2022-08-14T09:23:21;30.90;32.30
55121;DHT22;41019;48.512;9.036;2022-08-14T09:25:50;31.00;32.60
55121;DHT22;41019;48.512;9.036;2022-08-14T09:28:18;31.20;31.90
55121;DHT22;41019;48.512;9.036;2022-08-14T09:30:51;31.20;31.60
55121;DHT22;41019;48.512;9.036;2022-08-14T09:34:06;31.30;31.60
55121;DHT22;41019;48.512;9.036;2022-08-14T09:39:36;31.50;31.50
55121;DHT22;41019;48.512;9.036;2022-08-14T09:45:16;31.90;30.60
55121;DHT22;41019;48.512;9.036;2022-08-14T09:50:25;32.30;31.50
55121;DHT22;41019;48.512;9.036;2022-08-14T09:53:04;32.50;30.00
55121;DHT22;41019;48.512;9.036;2022-08-14T09:55:33;32.60;29.30
55121;DHT22;41019;48.512;9.036;2022-08-14T09:58:08;32.60;28.60
55121;DHT22;41019;48.512;9.036;2022-08-14T10:00:46;32.70;28.60
55121;DHT22;41019;48.512;9.036;2022-08-14T10:03:23;32.40;27.60
55121;DHT22;41019;48.512;9.036;2022-08-14T10:05:49;32.50;28.10
55121;DHT22;41019;48.512;9.036;2022-08-14T10:08:18;32.70;28.00
55121;DHT22;41019;48.512;9.036;2022-08-14T10:10:45;32.60;27.70
55121;DHT22;41019;48.512;9.036;2022-08-14T10:13:23;32.60;27.80
55121;DHT22;41019;48.512;9.036;2022-08-14T10:15:50;32.70;27.90
55121;DHT22;41019;48.512;9.036;2022-08-14T10:18:18;32.80;27.80
55121;DHT22;41019;48.512;9.036;2022-08-14T10:20:56;33.00;26.80
55121;DHT22;41019;48.512;9.036;2022-08-14T10:23:25;33.50;27.30
55121;DHT22;41019;48.512;9.036;2022-08-14T10:26:07;33.30;26.50
55121;DHT22;41019;48.512;9.036;2022-08-14T10:28:45;33.30;26.80
55121;DHT22;41019;48.512;9.036;2022-08-14T10:31:27;33.40;27.10
55121;DHT22;41019;48.512;9.036;2022-08-14T10:34:11;33.20;26.90
55121;DHT22;41019;48.512;9.036;2022-08-14T10:36:43;33.10;26.70
55121;DHT22;41019;48.512;9.036;2022-08-14T10:39:23;33.20;26.90
55121;DHT22;41019;48.512;9.036;2022-08-14T10:42:10;33.30;26.50
55121;DHT22;41019;48.512;9.036;2022-08-14T10:44:38;33.60;27.00
55121;DHT22;41019;48.512;9.036;2022-08-14T10:47:06;33.80;26.90
55121;DHT22;41019;48.512;9.036;2022-08-14T10:49:43;34.20;26.80
55121;DHT22;41019;48.512;9.036;2022-08-14T10:52:23;34.30;26.30
55121;DHT22;41019;48.512;9.036;2022-08-14T10:54:50;34.10;26.00
55121;DHT22;41019;48.512;9.036;2022-08-14T10:57:20;34.20;26.20
55121;DHT22;41019;48.512;9.036;2022-08-14T10:59:56;34.70;26.60
55121;DHT22;41019;48.512;9.036;2022-08-14T11:07:24;35.10;25.80
55121;DHT22;41019;48.512;9.036;2022-08-14T11:09:58;35.40;26.20
55121;DHT22;41019;48.512;9.036;2022-08-14T11:12:36;35.70;25.50
55121;DHT22;41019;48.512;9.036;2022-08-14T11:15:03;35.90;26.10
55121;DHT22;41019;48.512;9.036;2022-08-14T11:17:30;36.10;25.70
55121;DHT22;41019;48.512;9.036;2022-08-14T11:19:58;36.20;25.30
55121;DHT22;41019;48.512;9.036;2022-08-14T11:22:27;36.20;25.50
55121;DHT22;41019;48.512;9.036;2022-08-14T11:25:03;36.10;25.00
55121;DHT22;41019;48.512;9.036;2022-08-14T11:27:31;36.10;25.00
55121;DHT22;41019;48.512;9.036;2022-08-14T11:30:06;36.00;25.10
55121;DHT22;41019;48.512;9.036;2022-08-14T11:32:33;36.20;25.00
55121;DHT22;41019;48.512;9.036;2022-08-14T11:35:02;36.40;25.20
55121;DHT22;41019;48.512;9.036;2022-08-14T11:37:29;36.60;25.00
55121;DHT22;41019;48.512;9.036;2022-08-14T11:40:02;36.70;24.90
55121;DHT22;41019;48.512;9.036;2022-08-14T11:42:29;36.60;24.80
55121;DHT22;41019;48.512;9.036;2022-08-14T11:44:58;36.70;25.20
55121;DHT22;41019;48.512;9.036;2022-08-14T11:47:25;36.90;24.80
55121;DHT22;41019;48.512;9.036;2022-08-14T11:49:50;36.80;24.70
55121;DHT22;41019;48.512;9.036;2022-08-14T11:52:18;37.00;24.60
55121;DHT22;41019;48.512;9.036;2022-08-14T11:54:44;36.90;24.60
55121;DHT22;41019;48.512;9.036;2022-08-14T11:57:21;36.70;25.00
55121;DHT22;41019;48.512;9.036;2022-08-14T11:59:47;36.90;25.50
55121;DHT22;41019;48.512;9.036;2022-08-14T12:02:16;37.20;25.00
55121;DHT22;41019;48.512;9.036;2022-08-14T12:04:53;37.30;25.10
55121;DHT22;41019;48.512;9.036;2022-08-14T12:07:19;37.60;25.10
55121;DHT22;41019;48.512;9.036;2022-08-14T12:09:52;37.90;25.10
55121;DHT22;41019;48.512;9.036;2022-08-14T12:12:21;37.90;24.40
55121;DHT22;41019;48.512;9.036;2022-08-14T12:14:53;37.90;24.30
55121;DHT22;41019;48.512;9.036;2022-08-14T12:17:25;37.90;24.20
55121;DHT22;41019;48.512;9.036;2022-08-14T12:19:55;38.10;24.40
55121;DHT22;41019;48.512;9.036;2022-08-14T12:22:38;38.00;24.20
55121;DHT22;41019;48.512;9.036;2022-08-14T12:25:28;37.90;24.20
55121;DHT22;41019;48.512;9.036;2022-08-14T12:27:55;37.90;24.40
55121;DHT22;41019;48.512;9.036;2022-08-14T12:30:35;37.90;24.40
55121;DHT22;41019;48.512;9.036;2022-08-14T12:33:03;38.00;24.20
55121;DHT22;41019;48.512;9.036;2022-08-14T12:35:41;38.00;24.30
55121;DHT22;41019;48.512;9.036;2022-08-14T12:38:09;37.90;24.10
55121;DHT22;41019;48.512;9.036;2022-08-14T12:40:51;37.90;24.20
55121;DHT22;41019;48.512;9.036;2022-08-14T12:43:18;37.80;24.40
55121;DHT22;41019;48.512;9.036;2022-08-14T12:45:49;37.70;24.30
55121;DHT22;41019;48.512;9.036;2022-08-14T12:48:17;37.80;24.70
55121;DHT22;41019;48.512;9.036;2022-08-14T12:50:45;37.90;24.50
55121;DHT22;41019;48.512;9.036;2022-08-14T12:53:11;38.00;24.10
55121;DHT22;41019;48.512;9.036;2022-08-14T12:55:39;38.10;24.50
55121;DHT22;41019;48.512;9.036;2022-08-14T12:58:07;38.20;24.40
55121;DHT22;41019;48.512;9.036;2022-08-14T13:00:36;38.30;24.10
55121;DHT22;41019;48.512;9.036;2022-08-14T13:03:04;38.40;24.30
55121;DHT22;41019;48.512;9.036;2022-08-14T13:05:32;38.30;24.40
55121;DHT22;41019;48.512;9.036;2022-08-14T13:08:04;38.50;25.00
55121;DHT22;41019;48.512;9.036;2022-08-14T13:10:33;38.50;24.80
55121;DHT22;41019;48.512;9.036;2022-08-14T13:13:00;38.60;24.70
55121;DHT22;41019;48.512;9.036;2022-08-14T13:15:27;38.50;24.80
55121;DHT22;41019;48.512;9.036;2022-08-14T13:17:56;38.60;24.80
55121;DHT22;41019;48.512;9.036;2022-08-14T13:20:24;38.60;24.60
55121;DHT22;41019;48.512;9.036;2022-08-14T13:22:52;38.50;24.60
55121;DHT22;41019;48.512;9.036;2022-08-14T13:25:23;38.50;24.50
55121;DHT22;41019;48.512;9.036;2022-08-14T13:27:53;38.60;24.50
55121;DHT22;41019;48.512;9.036;2022-08-14T13:30:21;38.60;24.30
55121;DHT22;41019;48.512;9.036;2022-08-14T13:32:53;38.70;24.60
55121;DHT22;41019;48.512;9.036;2022-08-14T13:35:21;38.80;24.70
55121;DHT22;41019;48.512;9.036;2022-08-14T13:37:49;38.90;25.10
55121;DHT22;41019;48.512;9.036;2022-08-14T13:40:19;39.00;25.50
55121;DHT22;41019;48.512;9.036;2022-08-14T13:42:48;38.70;24.60
55121;DHT22;41019;48.512;9.036;2022-08-14T13:45:16;38.70;24.70
55121;DHT22;41019;48.512;9.036;2022-08-14T13:47:42;38.70;24.10
55121;DHT22;41019;48.512;9.036;2022-08-14T13:50:12;38.50;23.80
55121;DHT22;41019;48.512;9.036;2022-08-14T13:52:44;38.40;24.20
55121;DHT22;41019;48.512;9.036;2022-08-14T13:55:11;38.50;24.50
55121;DHT22;41019;48.512;9.036;2022-08-14T13:57:40;38.60;24.60
55121;DHT22;41019;48.512;9.036;2022-08-14T14:00:12;38.60;24.90
55121;DHT22;41019;48.512;9.036;2022-08-14T14:02:41;38.50;24.40
55121;DHT22;41019;48.512;9.036;2022-08-14T14:05:09;38.40;24.00
55121;DHT22;41019;48.512;9.036;2022-08-14T14:07:38;38.20;24.10
55121;DHT22;41019;48.512;9.036;2022-08-14T14:10:13;38.20;24.00
55121;DHT22;41019;48.512;9.036;2022-08-14T14:12:39;38.10;24.00
55121;DHT22;41019;48.512;9.036;2022-08-14T14:15:08;37.90;24.00
55121;DHT22;41019;48.512;9.036;2022-08-14T14:17:35;37.70;24.00
55121;DHT22;41019;48.512;9.036;2022-08-14T14:20:04;37.50;24.20
55121;DHT22;41019;48.512;9.036;2022-08-14T14:22:31;37.40;25.00
55121;DHT22;41019;48.512;9.036;2022-08-14T14:24:57;37.30;24.60
55121;DHT22;41019;48.512;9.036;2022-08-14T14:27:27;37.30;24.80
55121;DHT22;41019;48.512;9.036;2022-08-14T14:29:57;37.10;25.10
55121;DHT22;41019;48.512;9.036;2022-08-14T14:32:31;36.80;25.20
55121;DHT22;41019;48.512;9.036;2022-08-14T14:35:02;36.60;24.90
55121;DHT22;41019;48.512;9.036;2022-08-14T14:37:28;36.50;24.90
55121;DHT22;41019;48.512;9.036;2022-08-14T14:39:57;36.40;24.70
55121;DHT22;41019;48.512;9.036;2022-08-14T14:42:27;36.10;24.90
55121;DHT22;41019;48.512;9.036;2022-08-14T14:47:31;35.80;26.00
55121;DHT22;41019;48.512;9.036;2022-08-14T14:49:59;35.70;25.20
55121;DHT22;41019;48.512;9.036;2022-08-14T14:52:26;35.60;24.70
55121;DHT22;41019;48.512;9.036;2022-08-14T14:54:53;35.50;25.30
55121;DHT22;41019;48.512;9.036;2022-08-14T14:57:19;35.60;24.90
55121;DHT22;41019;48.512;9.036;2022-08-14T14:59:45;35.70;24.80
55121;DHT22;41019;48.512;9.036;2022-08-14T15:02:29;35.70;24.60
55121;DHT22;41019;48.512;9.036;2022-08-14T15:04:57;35.60;25.00
55121;DHT22;41019;48.512;9.036;2022-08-14T15:07:23;35.70;25.00
55121;DHT22;41019;48.512;9.036;2022-08-14T15:09:49;35.70;24.90
55121;DHT22;41019;48.512;9.036;2022-08-14T15:12:15;35.70;24.80
55121;DHT22;41019;48.512;9.036;2022-08-14T15:14:41;35.90;25.50
55121;DHT22;41019;48.512;9.036;2022-08-14T15:17:07;35.80;25.20
55121;DHT22;41019;48.512;9.036;2022-08-14T15:19:34;35.70;24.80
55121;DHT22;41019;48.512;9.036;2022-08-14T15:22:00;35.50;24.80
55121;DHT22;41019;48.512;9.036;2022-08-14T15:24:26;35.30;24.50
55121;DHT22;41019;48.512;9.036;2022-08-14T15:26:51;35.10;24.80
55121;DHT22;41019;48.512;9.036;2022-08-14T15:29:17;34.90;24.70
55121;DHT22;41019;48.512;9.036;2022-08-14T15:31:43;34.80;25.30
55121;DHT22;41019;48.512;9.036;2022-08-14T15:34:10;34.60;24.70
55121;DHT22;41019;48.512;9.036;2022-08-14T15:36:36;34.60;25.10
55121;DHT22;41019;48.512;9.036;2022-08-14T15:39:03;34.60;25.30
55121;DHT22;41019;48.512;9.036;2022-08-14T15:41:29;34.50;25.80
55121;DHT22;41019;48.512;9.036;2022-08-14T15:43:56;34.40;25.40
55121;DHT22;41019;48.512;9.036;2022-08-14T15:46:23;34.30;25.40
55121;DHT22;41019;48.512;9.036;2022-08-14T15:48:50;34.30;25.50
55121;DHT22;41019;48.512;9.036;2022-08-14T15:51:17;34.20;26.80
55121;DHT22;41019;48.512;9.036;2022-08-14T15:53:43;34.20;28.00
55121;DHT22;41019;48.512;9.036;2022-08-14T15:56:09;34.00;28.20
55121;DHT22;41019;48.512;9.036;2022-08-14T15:58:35;33.90;28.10
55121;DHT22;41019;48.512;9.036;2022-08-14T16:01:01;33.80;28.30
55121;DHT22;41019;48.512;9.036;2022-08-14T16:03:48;33.70;28.80
55121;DHT22;41019;48.512;9.036;2022-08-14T16:06:16;33.70;28.20
55121;DHT22;41019;48.512;9.036;2022-08-14T16:08:45;33.60;27.80
55121;DHT22;41019;48.512;9.036;2022-08-14T16:11:13;33.50;28.20